createdAt,value
2019-05-02T00:01:33.615Z,22.70
2019-05-02T00:04:51.057Z,22.90
2019-05-02T00:08:12.658Z,22.80
2019-05-02T00:15:16.313Z,22.90
2019-05-02T00:18:02.692Z,22.80
2019-05-02T00:21:20.830Z,22.70
2019-05-02T00:24:24.185Z,22.80
2019-05-02T00:30:45.061Z,22.90
2019-05-02T00:33:42.826Z,23.10
2019-05-02T00:39:51.176Z,23.30
2019-05-02T00:43:10.600Z,23.30
2019-05-02T00:46:13.560Z,23.40
2019-05-02T00:55:40.589Z,23.30
2019-05-02T01:02:22.911Z,23.40
2019-05-02T01:05:33.768Z,23.60
2019-05-02T01:08:42.430Z,23.50
2019-05-02T01:22:25.957Z,23.40
2019-05-02T01:25:28.497Z,23.60
2019-05-02T01:33:01.302Z,23.40
2019-05-02T01:36:20.683Z,23.50
2019-05-02T01:39:27.395Z,23.40
2019-05-02T01:42:17.447Z,23.40
2019-05-02T01:45:31.647Z,23.50
2019-05-02T01:48:33.786Z,24.00
2019-05-02T01:51:42.005Z,24.00
2019-05-02T01:55:36.191Z,24.00
2019-05-02T01:58:46.562Z,23.80
2019-05-02T02:01:44.974Z,23.80
2019-05-02T02:04:45.403Z,23.70
2019-05-02T02:07:50.866Z,23.70
2019-05-02T02:17:25.285Z,23.90
2019-05-02T02:24:43.319Z,24.10
2019-05-02T02:31:04.550Z,24.10
2019-05-02T02:34:26.031Z,24.10
2019-05-02T02:37:35.869Z,24.30
2019-05-02T02:40:49.343Z,24.40
2019-05-02T02:44:33.799Z,24.40
2019-05-02T02:47:30.201Z,24.40
2019-05-02T02:50:28.886Z,24.40
2019-05-02T03:01:31.306Z,24.80
2019-05-02T03:11:32.838Z,24.80
2019-05-02T03:25:49.781Z,24.90
2019-05-02T03:28:58.438Z,24.90
2019-05-02T03:32:35.324Z,24.90
2019-05-02T03:35:40.207Z,24.90
2019-05-02T03:38:32.380Z,25.00
2019-05-02T03:42:02.911Z,25.00
2019-05-02T03:48:33.254Z,25.10
2019-05-02T03:51:41.620Z,25.10
2019-05-02T03:54:52.918Z,25.10
2019-05-02T03:58:29.512Z,25.10
2019-05-02T04:01:41.136Z,25.20
2019-05-02T04:04:24.151Z,25.20
2019-05-02T04:11:04.652Z,25.20
2019-05-02T04:14:14.734Z,25.30
2019-05-02T04:17:06.617Z,25.30
2019-05-02T04:27:12.845Z,25.30
2019-05-02T04:33:34.625Z,25.50
2019-05-02T04:43:54.653Z,25.90
2019-05-02T04:47:17.496Z,25.80
2019-05-02T04:53:59.916Z,26.00
2019-05-02T04:57:48.057Z,26.00
2019-05-02T05:04:04.659Z,26.50
2019-05-02T05:14:12.498Z,26.60
2019-05-02T05:24:37.555Z,26.50
2019-05-02T05:27:24.110Z,26.40
2019-05-02T05:30:20.445Z,26.30
2019-05-02T05:33:28.321Z,26.30
2019-05-02T05:37:23.410Z,26.20
2019-05-02T05:40:31.876Z,26.10
2019-05-02T05:43:44.900Z,26.30
2019-05-02T05:47:12.176Z,26.10
2019-05-02T05:54:03.173Z,26.00
2019-05-02T05:57:19.179Z,26.10
2019-05-02T06:00:29.131Z,26.00
2019-05-02T06:03:20.062Z,26.00
2019-05-02T06:07:07.446Z,26.10
2019-05-02T06:13:38.049Z,26.20
2019-05-02T06:20:30.542Z,26.30
2019-05-02T06:23:51.983Z,26.30
2019-05-02T06:30:14.943Z,26.10
2019-05-02T06:33:25.957Z,26.10
2019-05-02T06:36:54.217Z,26.00
2019-05-02T06:40:09.334Z,26.00
2019-05-02T06:50:10.870Z,26.20
2019-05-02T06:53:23.465Z,26.10
2019-05-02T06:59:56.856Z,26.10
2019-05-02T07:03:11.505Z,26.00
2019-05-02T07:09:40.703Z,25.80
2019-05-02T07:12:19.741Z,25.80
2019-05-02T07:15:42.259Z,26.00
2019-05-02T07:18:35.634Z,26.00
2019-05-02T07:21:23.841Z,25.90
2019-05-02T07:23:59.429Z,25.90
2019-05-02T07:27:17.498Z,26.00
2019-05-02T07:30:47.669Z,25.90
2019-05-02T07:34:08.020Z,25.80
2019-05-02T07:40:48.103Z,25.60
2019-05-02T07:50:13.371Z,25.60
2019-05-02T07:53:04.307Z,25.60
2019-05-02T08:04:04.515Z,25.60
2019-05-02T08:07:25.881Z,25.50
2019-05-02T08:14:04.434Z,25.40
2019-05-02T08:17:32.963Z,25.30
2019-05-02T08:20:36.014Z,25.30
2019-05-02T08:23:57.006Z,25.60
2019-05-02T08:27:15.194Z,25.50
2019-05-02T08:34:27.254Z,25.50
2019-05-02T08:37:55.923Z,25.40
2019-05-02T08:41:20.259Z,25.30
2019-05-02T08:44:27.678Z,25.30
2019-05-02T09:01:15.575Z,25.20
2019-05-02T09:11:57.595Z,25.40
2019-05-02T09:14:46.519Z,25.40
2019-05-02T09:18:02.860Z,25.30
2019-05-02T09:21:07.540Z,25.30
2019-05-02T09:31:22.983Z,25.60
2019-05-02T09:34:51.822Z,25.40
2019-05-02T09:47:47.002Z,25.30
2019-05-02T09:50:42.771Z,25.30
2019-05-02T10:00:32.403Z,25.20
2019-05-02T10:03:32.143Z,25.20
2019-05-02T10:10:29.829Z,25.10
2019-05-02T10:13:39.339Z,25.60
2019-05-02T10:16:52.928Z,25.40
2019-05-02T10:20:05.419Z,25.30
2019-05-02T10:23:19.291Z,25.30
2019-05-02T10:32:58.830Z,25.10
2019-05-02T10:36:19.799Z,25.10
2019-05-02T10:42:37.137Z,25.10
2019-05-02T10:52:52.667Z,25.20
2019-05-02T11:03:18.589Z,24.90
2019-05-02T11:10:12.165Z,24.80
2019-05-02T11:24:15.220Z,24.80
2019-05-02T11:31:06.453Z,24.60
2019-05-02T11:41:02.807Z,24.40
2019-05-02T11:47:17.278Z,24.30
2019-05-02T11:57:05.138Z,24.30
2019-05-02T12:00:26.416Z,24.30
2019-05-02T12:03:54.132Z,24.20
2019-05-02T12:07:26.664Z,24.20
2019-05-02T12:10:36.629Z,24.10
2019-05-02T12:13:47.156Z,24.00
2019-05-02T12:16:43.512Z,24.00
2019-05-02T12:19:52.335Z,24.00
2019-05-02T12:26:02.674Z,24.30
2019-05-02T12:29:21.845Z,24.50
2019-05-02T12:32:42.722Z,24.40
2019-05-02T12:40:26.317Z,24.30
2019-05-02T12:42:53.321Z,24.30
2019-05-02T12:55:19.189Z,24.10
2019-05-02T12:58:03.517Z,24.10
2019-05-02T13:04:41.865Z,24.50
2019-05-02T13:08:07.098Z,24.40
2019-05-02T13:11:26.072Z,24.30
2019-05-02T13:18:23.293Z,24.10
2019-05-02T13:21:38.611Z,24.00
2019-05-02T13:24:57.179Z,24.00
2019-05-02T13:28:29.341Z,24.00
2019-05-02T13:35:48.621Z,24.00
2019-05-02T13:42:44.863Z,23.80
2019-05-02T13:46:16.451Z,23.80
2019-05-02T13:56:28.926Z,23.80
2019-05-02T13:59:57.051Z,24.30
2019-05-02T14:21:27.475Z,23.80
2019-05-02T14:28:41.117Z,24.20
2019-05-02T14:32:19.711Z,24.00
2019-05-02T14:41:57.566Z,23.80
2019-05-02T14:52:47.224Z,23.70
2019-05-02T15:03:03.244Z,23.90
2019-05-02T15:09:32.238Z,23.80
2019-05-02T15:19:32.675Z,24.10
2019-05-02T15:34:47.718Z,24.00
2019-05-02T15:49:16.352Z,23.70
2019-05-02T15:52:48.980Z,23.70
2019-05-02T15:56:36.750Z,23.90
2019-05-02T16:02:43.538Z,23.80
2019-05-02T16:05:42.029Z,23.70
2019-05-02T16:08:44.135Z,23.80
2019-05-02T16:12:19.446Z,23.80
2019-05-02T16:15:13.443Z,23.70
2019-05-02T16:18:26.470Z,23.80
2019-05-02T16:26:02.074Z,23.80
2019-05-02T16:29:02.920Z,23.70
2019-05-02T16:32:08.666Z,23.70
2019-05-02T16:39:04.662Z,23.60
2019-05-02T16:41:54.566Z,23.60
2019-05-02T16:45:14.654Z,23.60
2019-05-02T16:47:59.157Z,23.60
2019-05-02T16:51:29.858Z,23.50
2019-05-02T16:54:27.799Z,23.50
2019-05-02T16:57:51.921Z,23.80
2019-05-02T17:04:14.813Z,23.50
2019-05-02T17:10:36.620Z,23.50
2019-05-02T17:13:53.729Z,23.40
2019-05-02T17:17:12.250Z,23.40
2019-05-02T17:20:46.774Z,23.40
2019-05-02T17:23:42.936Z,23.40
2019-05-02T17:26:23.342Z,23.40
2019-05-02T17:29:21.383Z,23.40
2019-05-02T17:32:04.526Z,23.30
2019-05-02T17:35:16.371Z,23.30
2019-05-02T17:38:27.376Z,23.30
2019-05-02T17:41:45.497Z,23.20
2019-05-02T17:44:45.169Z,23.20
2019-05-02T17:47:41.418Z,23.20
2019-05-02T17:50:49.333Z,23.10
2019-05-02T17:57:02.571Z,23.20
2019-05-02T17:59:48.582Z,23.60
2019-05-02T18:06:46.816Z,23.30
2019-05-02T18:10:05.058Z,23.20
2019-05-02T18:13:29.247Z,23.20
2019-05-02T18:16:55.574Z,23.20
2019-05-02T18:20:09.865Z,23.10
2019-05-02T18:23:42.821Z,23.10
2019-05-02T18:26:52.243Z,23.00
2019-05-02T18:30:05.571Z,23.10
2019-05-02T18:32:48.514Z,23.00
2019-05-02T18:35:27.627Z,23.00
2019-05-02T18:38:52.411Z,23.00
2019-05-02T18:41:46.003Z,22.90
2019-05-02T18:44:32.659Z,22.90
2019-05-02T18:50:47.592Z,23.00
2019-05-02T18:53:27.932Z,22.90
2019-05-02T18:56:25.355Z,23.40
2019-05-02T18:59:38.142Z,23.30
2019-05-02T19:02:26.305Z,23.40
2019-05-02T19:05:26.419Z,23.30
2019-05-02T19:08:31.590Z,23.10
2019-05-02T19:11:26.842Z,23.00
2019-05-02T19:14:32.579Z,23.00
2019-05-02T19:17:38.573Z,23.00
2019-05-02T19:20:57.759Z,22.90
2019-05-02T19:24:13.103Z,22.80
2019-05-02T19:26:56.337Z,22.90
2019-05-02T19:29:36.224Z,22.80
2019-05-02T19:32:31.959Z,22.80
2019-05-02T19:35:37.549Z,23.20
2019-05-02T19:38:17.121Z,23.10
2019-05-02T19:41:05.588Z,22.90
2019-05-02T19:44:02.473Z,22.90
2019-05-02T19:46:49.448Z,22.90
2019-05-02T19:50:08.249Z,22.90
2019-05-02T19:53:01.166Z,22.90
2019-05-02T19:55:42.709Z,22.80
2019-05-02T19:58:23.315Z,22.80
2019-05-02T20:01:26.572Z,22.80
2019-05-02T20:04:19.356Z,22.80
2019-05-02T20:07:05.119Z,23.10
2019-05-02T20:09:52.440Z,22.90
2019-05-02T20:12:50.536Z,22.90
2019-05-02T20:15:39.322Z,22.90
2019-05-02T20:18:28.139Z,22.80
2019-05-02T20:21:23.557Z,22.80
2019-05-02T20:24:14.618Z,22.80
2019-05-02T20:26:55.976Z,22.70
2019-05-02T20:29:38.749Z,22.70
2019-05-02T20:32:21.916Z,22.60
2019-05-02T20:35:16.164Z,22.70
2019-05-02T20:37:58.229Z,22.70
2019-05-02T20:40:39.643Z,22.80
2019-05-02T20:46:12.169Z,22.70
2019-05-02T20:48:54.219Z,22.70
2019-05-02T20:51:42.360Z,22.70
2019-05-02T20:54:26.697Z,22.60
2019-05-02T20:57:08.715Z,22.60
2019-05-02T20:59:52.532Z,22.60
2019-05-02T21:02:31.849Z,22.60
2019-05-02T21:05:19.991Z,22.80
2019-05-02T21:11:59.298Z,22.80
2019-05-02T21:14:41.595Z,22.80
2019-05-02T21:17:32.759Z,22.80
2019-05-02T21:20:17.526Z,22.70
2019-05-02T21:22:59.203Z,22.60
2019-05-02T21:25:39.118Z,22.60
2019-05-02T21:28:22.697Z,22.60
2019-05-02T21:31:08.875Z,22.60
2019-05-02T21:33:55.205Z,22.60
2019-05-02T21:36:52.297Z,22.60
2019-05-02T21:40:02.619Z,22.80
2019-05-02T21:42:52.346Z,22.70
2019-05-02T21:45:39.509Z,22.90
2019-05-02T21:48:25.425Z,22.80
2019-05-02T21:51:25.733Z,22.60
2019-05-02T22:01:42.857Z,22.40
2019-05-02T22:08:25.092Z,22.40
2019-05-02T22:11:58.592Z,22.40
2019-05-02T22:14:50.399Z,22.30
2019-05-02T22:18:15.882Z,22.40
2019-05-02T22:20:55.583Z,22.70
2019-05-02T22:23:38.875Z,22.60
2019-05-02T22:29:43.044Z,22.60
2019-05-02T22:32:32.126Z,22.50
2019-05-02T22:35:44.055Z,22.50
2019-05-02T22:39:13.367Z,22.50
2019-05-02T22:42:26.974Z,22.50
2019-05-02T22:45:14.268Z,22.50
2019-05-02T22:47:58.389Z,22.50
2019-05-02T22:51:12.662Z,22.40
2019-05-02T22:54:26.785Z,22.60
2019-05-02T22:57:26.562Z,22.60
2019-05-02T23:00:21.716Z,22.60
2019-05-02T23:03:14.777Z,22.60
2019-05-02T23:06:28.819Z,22.60
2019-05-02T23:09:12.706Z,22.60
2019-05-02T23:12:03.554Z,22.60
2019-05-02T23:15:14.415Z,22.60
2019-05-02T23:17:57.189Z,22.60
2019-05-02T23:20:49.964Z,22.70
2019-05-02T23:41:09.463Z,22.80
2019-05-02T23:54:51.711Z,22.70
